Time;durP1;ratioP1;P1;durP2;ratioP2;P2;SDS_P1;SDS_P2;PMS_P1;PMS_P2;Temp;Humidity;BMP_temperature;BMP_pressure;BME280_temperature;BME280_humidity;BME280_pressure;Samples;Min_cycle;Max_cycle;Signal;HPM_P1;HPM_P2
2023/09/22 00:00:55;;;;;;;12.45;9.15;;;;;;;;;;5108232;28;20100;-74
2023/09/22 00:03:23;;;;;;;11.13;8.30;;;;;;;;;;5058068;28;20396;-74
2023/09/22 00:05:52;;;;;;;12.18;9.38;;;;;;;;;;5090727;28;20052;-74
2023/09/22 00:08:18;;;;;;;10.68;8.68;;;;;;;;;;5107751;28;20483;-74
2023/09/22 00:10:44;;;;;;;11.93;9.48;;;;;;;;;;5108018;28;20109;-74
2023/09/22 00:13:10;;;;;;;11.70;8.77;;;;;;;;;;5108793;28;20032;-74
2023/09/22 00:15:36;;;;;;;14.27;9.75;;;;;;;;;;5109010;28;20074;-74
2023/09/22 00:18:03;;;;;;;14.43;11.02;;;;;;;;;;5108319;28;20484;-69
2023/09/22 00:20:30;;;;;;;15.82;11.57;;;;;;;;;;5073605;28;20046;-73
2023/09/22 00:22:56;;;;;;;16.65;12.07;;;;;;;;;;5073736;28;20044;-74
2023/09/22 00:25:22;;;;;;;15.25;12.05;;;;;;;;;;5040664;28;20143;-74
2023/09/22 00:27:48;;;;;;;17.95;11.63;;;;;;;;;;5106115;28;20047;-74
2023/09/22 00:30:14;;;;;;;14.13;10.88;;;;;;;;;;5111544;28;20058;-74
2023/09/22 00:32:40;;;;;;;15.30;10.85;;;;;;;;;;5111782;28;20036;-75
2023/09/22 00:35:10;;;;;;;17.73;11.20;;;;;;;;;;5111757;28;20037;-75
2023/09/22 00:37:37;;;;;;;14.27;10.30;;;;;;;;;;5094632;28;20047;-74
2023/09/22 00:40:04;;;;;;;15.00;10.70;;;14.00;99.90;;;;;;5111461;28;20050;-75
2023/09/22 00:42:30;;;;;;;14.52;10.60;;;;;;;;;;5111342;28;20047;-75
2023/09/22 00:44:56;;;;;;;13.20;9.88;;;;;;;;;;5111416;28;20122;-74
2023/09/22 00:47:22;;;;;;;14.63;10.68;;;;;;;;;;5094582;28;20043;-74
2023/09/22 00:49:49;;;;;;;14.75;10.20;;;15.40;99.90;;;;;;5111680;28;20382;-75
2023/09/22 00:52:18;;;;;;;13.48;10.50;;;;;;;;;;5111489;28;20414;-74
2023/09/22 00:54:45;;;;;;;15.32;11.00;;;;;;;;;;5094282;28;20115;-74
2023/09/22 00:57:11;;;;;;;14.85;10.68;;;15.30;99.90;;;;;;5111556;28;20108;-74
2023/09/22 00:59:37;;;;;;;13.30;10.10;;;16.10;99.90;;;;;;5111206;28;20456;-74
2023/09/22 01:02:03;;;;;;;12.68;9.50;;;;;;;;;;5094370;28;20059;-73
2023/09/22 01:04:30;;;;;;;12.15;9.05;;;;;;;;;;5094725;28;20036;-75
2023/09/22 01:06:56;;;;;;;14.60;9.20;;;;;;;;;;5077291;28;20146;-75
2023/09/22 01:09:22;;;;;;;11.00;8.38;;;;;;;;;;5094114;28;20047;-74
2023/09/22 01:11:48;;;;;;;12.07;8.85;;;;;;;;;;5094346;28;20039;-74
2023/09/22 01:14:14;;;;;;;11.52;7.90;;;;;;;;;;5111095;28;20043;-75
2023/09/22 01:16:41;;;;;;;10.70;8.27;;;;;;;;;;5110931;28;20032;-74
2023/09/22 01:19:16;;;;;;;11.35;8.73;;;;;;;;;;5111060;28;20529;-74
2023/09/22 01:21:49;;;;;;;14.07;8.90;;;14.60;99.90;;;;;;5098316;28;20036;-75
2023/09/22 01:24:15;;;;;;;13.32;8.45;;;;;;;;;;5115755;28;20483;-74
2023/09/22 01:26:41;;;;;;;11.63;8.77;;;;;;;;;;5116597;28;20039;-74
2023/09/22 01:29:08;;;;;;;13.23;9.40;;;;;;;;;;5098082;28;20040;-74
2023/09/22 01:31:34;;;;;;;16.00;10.52;;;;;;;;;;5098042;28;20063;-74
2023/09/22 01:34:01;;;;;;;15.90;11.05;;;;;;;;;;5114911;28;20143;-74
2023/09/22 01:36:28;;;;;;;13.23;9.27;;;;;;;;;;5114929;28;20040;-74
2023/09/22 01:38:54;;;;;;;16.83;8.70;;;;;;;;;;5115316;28;20122;-74
2023/09/22 01:41:20;;;;;;;13.05;9.65;;;;;;;;;;5114985;28;20039;-74
2023/09/22 01:43:46;;;;;;;13.40;9.00;;;;;;;;;;5114853;28;20491;-74
2023/09/22 01:46:12;;;;;;;13.02;9.95;;;;;;;;;;5115247;28;20031;-74
2023/09/22 01:48:39;;;;;;;14.70;9.38;;;;;;;;;;5081072;28;20044;-74
2023/09/22 01:51:05;;;;;;;17.80;10.55;;;15.90;99.90;;;;;;5114669;28;20065;-75
2023/09/22 01:53:31;;;;;;;15.43;11.50;;;;;;;;;;5097886;28;20068;-74
2023/09/22 01:55:57;;;;;;;13.68;10.20;;;;;;;;;;5097772;28;20036;-74
2023/09/22 01:58:23;;;;;;;17.92;12.25;;;15.70;99.90;;;;;;5114982;28;20122;-74
2023/09/22 02:00:49;;;;;;;18.25;11.82;;;;;;;;;;5097366;28;20158;-74
2023/09/22 02:03:15;;;;;;;16.10;11.38;;;;;;;;;;5114516;28;20096;-74
2023/09/22 02:05:41;;;;;;;16.45;11.57;;;;;;;;;;5097475;28;20039;-74
2023/09/22 02:08:08;;;;;;;17.63;12.02;;;;;;;;;;5114328;28;20084;-74
2023/09/22 02:10:34;;;;;;;15.52;10.85;;;;;;;;;;5097501;28;20061;-75
2023/09/22 02:13:00;;;;;;;16.38;11.80;;;;;;;;;;5115775;28;20043;-74
2023/09/22 02:15:26;;;;;;;18.25;11.63;;;;;;;;;;5097391;28;20114;-74
2023/09/22 02:17:53;;;;;;;21.45;12.68;;;15.90;99.90;;;;;;5114641;28;20075;-74
2023/09/22 02:20:23;;;;;;;17.75;12.40;;;;;;;;;;5114443;28;20040;-74
2023/09/22 02:22:50;;;;;;;17.42;12.07;;;15.00;99.90;;;;;;5114275;28;20071;-74
2023/09/22 02:25:19;;;;;;;16.05;11.40;;;14.80;99.90;;;;;;5114440;28;20368;-69
2023/09/22 02:27:47;;;;;;;17.55;12.60;;;;;;;;;;5097953;28;20126;-69
2023/09/22 02:30:14;;;;;;;17.33;12.00;;;;;;;;;;5114198;28;20044;-69
2023/09/22 02:32:43;;;;;;;17.67;11.50;;;14.80;99.90;;;;;;5113384;28;20051;-70
2023/09/22 02:35:09;;;;;;;16.77;11.32;;;;;;;;;;5114080;28;20048;-69
2023/09/22 02:37:36;;;;;;;16.48;10.60;;;;;;;;;;5113971;28;20130;-69
2023/09/22 02:40:02;;;;;;;15.50;10.13;;;;;;;;;;5113970;28;20051;-69
2023/09/22 02:42:29;;;;;;;17.73;10.20;;;;;;;;;;5113882;28;20044;-69
2023/09/22 02:44:55;;;;;;;13.82;9.18;;;;;;;;;;5097250;28;20104;-69
2023/09/22 02:47:21;;;;;;;13.40;9.75;;;;;;;;;;5097429;28;20519;-69
2023/09/22 02:49:47;;;;;;;14.18;8.95;;;15.10;99.90;;;;;;5113998;28;20465;-69
2023/09/22 02:52:14;;;;;;;12.38;8.98;;;;;;;;;;5113955;28;20046;-69
2023/09/22 02:54:40;;;;;;;10.93;8.07;;;;;;;;;;5114076;28;20240;-69
2023/09/22 02:57:06;;;;;;;12.27;8.35;;;;;;;;;;5117087;28;20124;-69
2023/09/22 02:59:33;;;;;;;12.20;8.55;;;;;;;;;;5124709;28;20039;-69
2023/09/22 03:01:59;;;;;;;12.48;7.22;;;;;;;;;;5128803;28;20078;-70
2023/09/22 03:04:25;;;;;;;9.32;6.70;;;;;;;;;;5133070;28;20040;-74
2023/09/22 03:06:52;;;;;;;8.52;6.15;;;13.30;99.90;;;;;;5126104;28;20043;-74
2023/09/22 03:09:18;;;;;;;10.00;7.20;;;;;;;;;;5121181;28;20151;-74
2023/09/22 03:11:44;;;;;;;9.07;5.93;;;;;;;;;;5103974;28;20112;-74
2023/09/22 03:14:10;;;;;;;9.30;5.80;;;14.80;99.90;;;;;;5119983;28;20119;-73
2023/09/22 03:16:36;;;;;;;9.38;5.13;;;;;;;;;;5115292;28;20081;-75
2023/09/22 03:19:02;;;;;;;7.30;5.65;;;;;;;;;;5113303;28;20099;-74
2023/09/22 03:21:28;;;;;;;7.75;5.18;;;;;;;;;;5113116;28;20051;-69
2023/09/22 03:23:54;;;;;;;9.05;4.70;;;;;;;;;;5112928;28;20055;-70
2023/09/22 03:26:21;;;;;;;6.72;4.75;;;14.20;99.90;;;;;;5096310;28;20122;-69
2023/09/22 03:28:48;;;;;;;6.80;4.95;;;;;;;;;;5113275;28;20095;-69
2023/09/22 03:31:14;;;;;;;6.20;4.90;;;;;;;;;;5095976;28;20074;-69
2023/09/22 03:33:40;;;;;;;6.32;4.78;;;;;;;;;;5095577;28;20116;-69
2023/09/22 03:36:12;;;;;;;5.65;4.80;;;;;;;;;;5113106;28;20039;-69
2023/09/22 03:38:42;;;;;;;7.00;4.57;;;;;;;;;;5114287;28;20169;-70
2023/09/22 03:41:09;;;;;;;5.30;4.53;;;;;;;;;;5112677;28;20494;-69
2023/09/22 03:43:35;;;;;;;7.60;4.45;;;;;;;;;;5112533;28;20126;-69
2023/09/22 03:46:01;;;;;;;6.10;4.57;;;;;;;;;;5112778;28;20156;-69
2023/09/22 03:48:27;;;;;;;6.70;4.50;;;;;;;;;;5112660;28;20118;-70
2023/09/22 03:50:56;;;;;;;5.60;4.80;;;13.10;99.90;;;;;;5112572;28;20044;-69
2023/09/22 03:53:22;;;;;;;7.78;5.10;;;;;;;;;;5112614;28;20131;-69
2023/09/22 03:55:49;;;;;;;8.98;4.57;;;;;;;;;;5112725;28;20116;-69
2023/09/22 03:58:17;;;;;;;6.10;4.72;;;;;;;;;;5112771;28;20058;-69
2023/09/22 04:00:43;;;;;;;6.45;4.57;;;;;;;;;;5118038;27;20133;-74
2023/09/22 04:03:11;;;;;;;8.27;5.10;;;;;;;;;;5098874;27;20495;-74
2023/09/22 04:05:38;;;;;;;7.28;5.68;;;;;;;;;;5115657;27;20043;-74
2023/09/22 04:08:05;;;;;;;6.88;5.47;;;;;;;;;;5115281;27;20038;-74
2023/09/22 04:10:31;;;;;;;7.78;5.72;;;13.20;99.90;;;;;;5115524;27;20475;-74
2023/09/22 04:12:57;;;;;;;9.27;6.47;;;;;;;;;;5098327;27;20125;-69
2023/09/22 04:15:23;;;;;;;9.68;6.28;;;;;;;;;;5115306;27;20039;-69
2023/09/22 04:17:51;;;;;;;13.32;6.70;;;;;;;;;;5115641;27;20031;-70
2023/09/22 04:20:27;;;;;;;9.63;7.13;;;;;;;;;;5115619;27;20386;-69
2023/09/22 04:22:53;;;;;;;10.70;7.05;;;;;;;;;;5115408;27;20395;-69
2023/09/22 04:25:29;;;;;;;9.77;7.20;;;;;;;;;;5098531;27;20391;-69
2023/09/22 04:27:57;;;;;;;13.32;8.00;;;14.20;99.90;;;;;;5133653;27;20129;-69
2023/09/22 04:30:25;;;;;;;16.88;8.60;;;;;;;;;;5115245;27;20039;-69
2023/09/22 04:32:54;;;;;;;13.48;8.35;;;14.90;99.90;;;;;;5115075;27;20042;-69
2023/09/22 04:35:21;;;;;;;10.77;7.93;;;;;;;;;;5114943;27;20117;-69
2023/09/22 04:37:47;;;;;;;13.27;8.27;;;;;;;;;;5114857;27;20473;-69
2023/09/22 04:40:27;;;;;;;12.13;7.80;;;;;;;;;;5115108;27;20478;-69
2023/09/22 04:42:54;;;;;;;13.50;8.70;;;;;;;;;;5098314;27;20125;-69
2023/09/22 04:45:21;;;;;;;20.55;8.43;;;;;;;;;;5133379;27;20049;-69
2023/09/22 04:47:48;;;;;;;16.30;7.68;;;;;;;;;;5097925;27;20039;-69
2023/09/22 04:50:17;;;;;;;11.18;8.32;;;;;;;;;;5114933;27;20094;-69
2023/09/22 04:52:45;;;;;;;13.85;7.88;;;;;;;;;;5133224;27;20039;-69
2023/09/22 04:55:11;;;;;;;11.25;7.65;;;13.30;99.90;;;;;;5114399;27;20039;-69
2023/09/22 04:57:38;;;;;;;13.00;8.07;;;;;;;;;;5114601;27;20039;-69
2023/09/22 05:00:12;;;;;;;9.93;7.07;;;14.20;99.90;;;;;;5115006;27;20483;-69
2023/09/22 05:02:38;;;;;;;12.07;7.70;;;;;;;;;;5082301;28;20054;-74
2023/09/22 05:05:06;;;;;;;13.25;7.60;;;;;;;;;;5114980;27;20388;-74
2023/09/22 05:07:33;;;;;;;15.75;9.80;;;14.20;99.90;;;;;;5098026;28;20039;-74
2023/09/22 05:09:59;;;;;;;13.73;8.27;;;;;;;;;;5114729;28;20074;-74
2023/09/22 05:12:26;;;;;;;15.65;8.95;;;;;;;;;;5115014;28;20060;-74
2023/09/22 05:14:55;;;;;;;13.48;8.25;;;;;;;;;;5114876;28;20049;-74
2023/09/22 05:17:22;;;;;;;16.27;9.55;;;;;;;;;;5097820;28;20043;-75
2023/09/22 05:19:48;;;;;;;20.70;9.30;;;;;;;;;;5097889;28;20035;-69
2023/09/22 05:22:14;;;;;;;13.30;9.15;;;;;;;;;;5097909;28;20575;-69
2023/09/22 05:24:40;;;;;;;17.92;10.25;;;;;;;;;;5115296;28;20058;-69
2023/09/22 05:27:07;;;;;;;18.00;9.77;;;;;;;;;;5114903;28;20043;-69
2023/09/22 05:29:33;;;;;;;15.00;9.38;;;;;;;;;;5097989;28;20121;-69
2023/09/22 05:31:59;;;;;;;19.00;11.20;;;;;;;;;;5114620;28;20497;-69
2023/09/22 05:34:25;;;;;;;18.27;9.85;;;;;;;;;;5114978;28;20312;-69
2023/09/22 05:36:51;;;;;;;18.15;10.68;;;;;;;;;;5114819;28;20104;-69
2023/09/22 05:39:17;;;;;;;20.45;11.63;;;14.60;99.90;;;;;;5097827;28;20114;-69
2023/09/22 05:41:47;;;;;;;17.02;11.13;;;;;;;;;;5114513;28;20126;-69
2023/09/22 05:44:16;;;;;;;21.20;12.15;;;;;;;;;;5114396;28;20487;-69
2023/09/22 05:46:42;;;;;;;23.08;13.07;;;;;;;;;;5114465;28;20046;-69
2023/09/22 05:49:08;;;;;;;24.98;13.98;;;;;;;;;;5114547;28;20546;-74
2023/09/22 05:51:35;;;;;;;26.33;14.70;;;14.30;99.90;;;;;;5114425;28;20043;-75
2023/09/22 05:54:03;;;;;;;22.10;14.00;;;;;;;;;;5114684;28;20044;-75
2023/09/22 05:56:29;;;;;;;25.77;14.20;;;;;;;;;;5114498;28;20079;-75
2023/09/22 05:58:55;;;;;;;27.58;14.77;;;;;;;;;;5097739;28;20046;-75
2023/09/22 06:01:22;;;;;;;28.08;13.90;;;;;;;;;;5097307;27;20062;-75
2023/09/22 06:03:47;;;;;;;26.90;14.43;;;15.10;99.90;;;;;;5114918;28;20063;-75
2023/09/22 06:06:14;;;;;;;26.60;15.20;;;;;;;;;;5116325;27;20470;-75
2023/09/22 06:08:41;;;;;;;24.10;14.88;;;;;;;;;;5101619;27;20043;-75
2023/09/22 06:11:08;;;;;;;24.40;14.45;;;14.10;99.90;;;;;;5118527;27;20039;-75
2023/09/22 06:13:34;;;;;;;22.95;14.15;;;;;;;;;;5101772;27;20039;-75
2023/09/22 06:16:00;;;;;;;25.80;13.98;;;;;;;;;;5101660;27;20031;-75
2023/09/22 06:18:27;;;;;;;24.95;14.93;;;;;;;;;;5118516;27;20043;-75
2023/09/22 06:20:57;;;;;;;26.27;13.93;;;14.10;99.90;;;;;;5118576;27;20047;-75
2023/09/22 06:23:26;;;;;;;23.73;14.18;;;;;;;;;;5118424;27;20079;-75
2023/09/22 06:25:55;;;;;;;23.77;14.18;;;14.10;99.90;;;;;;5132674;27;20090;-75
2023/09/22 06:28:21;;;;;;;27.23;16.02;;;;;;;;;;5139806;27;20098;-74
2023/09/22 06:30:47;;;;;;;27.27;15.75;;;14.20;99.90;;;;;;5138361;27;20190;-74
2023/09/22 06:33:17;;;;;;;24.40;15.48;;;14.10;99.90;;;;;;5121124;27;20094;-75
2023/09/22 06:35:46;;;;;;;27.92;15.95;;;;;;;;;;5136669;27;20046;-75
2023/09/22 06:38:14;;;;;;;29.88;17.05;;;;;;;;;;5130674;27;20046;-75
2023/09/22 06:40:41;;;;;;;28.30;15.98;;;;;;;;;;5101233;27;20053;-75
2023/09/22 06:43:08;;;;;;;24.92;15.95;;;;;;;;;;5117706;27;20038;-75
2023/09/22 06:45:38;;;;;;;30.08;16.27;;;;;;;;;;5117812;27;20344;-75
2023/09/22 06:48:09;;;;;;;29.58;16.80;;;;;;;;;;5117574;27;20122;-75
2023/09/22 06:50:38;;;;;;;28.20;16.15;;;13.20;99.90;;;;;;5117463;27;20043;-75
2023/09/22 06:53:04;;;;;;;30.15;17.10;;;;;;;;;;5117557;27;20039;-75
2023/09/22 06:55:33;;;;;;;28.40;16.25;;;;;;;;;;5117551;27;20054;-75
2023/09/22 06:57:59;;;;;;;30.23;16.63;;;;;;;;;;5117226;27;20084;-75
2023/09/22 07:00:28;;;;;;;29.35;17.08;;;;;;;;;;5100203;27;20058;-75
2023/09/22 07:02:54;;;;;;;32.65;18.10;;;;;;;;;;5116960;27;20059;-76
2023/09/22 07:05:21;;;;;;;31.73;17.83;;;;;;;;;;5117490;27;20503;-75
2023/09/22 07:07:47;;;;;;;28.40;16.10;;;;;;;;;;5083541;27;20035;-75
2023/09/22 07:10:13;;;;;;;29.27;17.15;;;;;;;;;;5116895;27;20039;-75
2023/09/22 07:12:40;;;;;;;32.72;18.23;;;;;;;;;;5117294;27;20070;-75
2023/09/22 07:15:06;;;;;;;33.65;16.60;;;14.50;99.90;;;;;;5117319;27;20078;-75
2023/09/22 07:17:33;;;;;;;31.52;17.48;;;14.40;99.90;;;;;;5116388;27;20035;-75
2023/09/22 07:20:01;;;;;;;30.90;17.80;;;;;;;;;;5116828;27;20118;-75
2023/09/22 07:22:33;;;;;;;33.50;17.48;;;;;;;;;;5116764;27;20494;-75
2023/09/22 07:24:59;;;;;;;;;;;;;;;;;;5117490;27;20126;-75
2023/09/22 07:27:25;;;;;;;31.45;18.05;;;14.30;99.90;;;;;;5116654;27;19950;-75
2023/09/22 07:29:51;;;;;;;31.63;17.60;;;;;;;;;;5135083;27;20130;-75
2023/09/22 07:32:18;;;;;;;30.02;17.48;;;;;;;;;;5116949;27;20039;-75
2023/09/22 07:34:45;;;;;;;30.42;17.30;;;;;;;;;;5082899;27;20168;-75
2023/09/22 07:37:11;;;;;;;25.58;15.75;;;;;;;;;;5082891;27;20034;-75
2023/09/22 07:39:40;;;;;;;30.92;16.77;;;15.50;99.90;;;;;;5099607;27;20035;-75
2023/09/22 07:42:07;;;;;;;31.67;17.23;;;;;;;;;;5116206;27;20492;-75
2023/09/22 07:44:34;;;;;;;29.73;15.68;;;;;;;;;;5116411;27;20502;-75
2023/09/22 07:47:00;;;;;;;30.33;15.82;;;;;;;;;;5116357;27;20515;-75
2023/09/22 07:49:27;;;;;;;24.10;14.98;;;;;;;;;;5116143;27;20082;-75
2023/09/22 07:51:53;;;;;;;24.25;15.43;;;;;;;;;;5099230;27;20043;-75
2023/09/22 07:54:24;;;;;;;28.58;15.43;;;;;;;;;;5099098;27;20078;-75
2023/09/22 07:56:51;;;;;;;25.40;15.63;;;;;;;;;;5116678;27;20372;-75
2023/09/22 07:59:17;;;;;;;29.05;14.45;;;;;;;;;;5099306;27;20039;-75
2023/09/22 08:01:46;;;;;;;24.88;14.70;;;15.30;99.90;;;;;;5116185;27;20062;-75
2023/09/22 08:04:15;;;;;;;23.42;13.18;;;;;;;;;;5116187;27;20051;-76
2023/09/22 08:06:41;;;;;;;20.48;13.18;;;;;;;;;;5082525;27;20042;-75
2023/09/22 08:09:07;;;;;;;19.85;12.07;;;;;;;;;;5116413;27;20046;-75
2023/09/22 08:11:34;;;;;;;20.55;11.63;;;;;;;;;;5116027;27;20050;-75
2023/09/22 08:14:00;;;;;;;23.15;11.20;;;;;;;;;;5116219;27;20051;-76
2023/09/22 08:16:27;;;;;;;21.60;10.27;;;;;;;;;;5098969;27;20099;-70
2023/09/22 08:18:56;;;;;;;17.67;9.70;;;;;;;;;;5098873;27;20077;-70
2023/09/22 08:21:22;;;;;;;14.20;9.65;;;;;;;;;;5099614;27;20064;-70
2023/09/22 08:23:48;;;;;;;15.70;8.95;;;;;;;;;;5115651;27;20049;-70
2023/09/22 08:26:17;;;;;;;15.32;9.88;;;;;;;;;;5115646;27;20039;-70
2023/09/22 08:28:50;;;;;;;12.85;8.43;;;15.80;99.90;;;;;;5115752;27;20047;-70
2023/09/22 08:31:16;;;;;;;17.90;9.27;;;;;;;;;;5133933;27;20047;-70
2023/09/22 08:33:42;;;;;;;14.50;8.77;;;;;;;;;;5115128;27;20050;-70
2023/09/22 08:36:08;;;;;;;10.73;7.78;;;;;;;;;;5098350;27;20039;-71
2023/09/22 08:38:34;;;;;;;16.00;8.43;;;;;;;;;;5098463;27;20035;-70
2023/09/22 08:41:04;;;;;;;10.95;7.95;;;16.00;99.90;;;;;;5098547;27;20039;-70
2023/09/22 08:43:32;;;;;;;9.95;7.57;;;;;;;;;;5115485;27;20043;-71
2023/09/22 08:45:59;;;;;;;13.60;7.47;;;;;;;;;;5115352;27;20050;-71
2023/09/22 08:48:25;;;;;;;14.27;8.60;;;16.40;99.90;;;;;;5115918;27;20394;-70
2023/09/22 08:50:52;;;;;;;15.55;8.70;;;;;;;;;;5098784;27;20043;-71
2023/09/22 08:53:19;;;;;;;15.13;8.30;;;;;;;;;;5133874;27;20417;-70
2023/09/22 08:55:45;;;;;;;12.10;8.70;;;;;;;;;;5115605;27;20100;-71
2023/09/22 08:58:11;;;;;;;13.15;8.50;;;;;;;;;;5115413;27;20039;-70
2023/09/22 09:00:38;;;;;;;13.52;8.00;;;;;;;;;;5098194;27;20039;-71
2023/09/22 09:03:09;;;;;;;12.07;7.30;;;15.90;99.90;;;;;;5111539;28;20131;-76
2023/09/22 09:05:35;;;;;;;9.88;6.57;;;;;;;;;;5111959;28;20048;-76
2023/09/22 09:08:12;;;;;;;11.88;5.88;;;15.70;99.90;;;;;;5094945;28;20043;-76
2023/09/22 09:10:40;;;;;;;8.70;5.90;;;15.70;99.90;;;;;;5095162;28;20039;-71
2023/09/22 09:13:07;;;;;;;10.35;5.43;;;;;;;;;;5111887;28;20372;-69
2023/09/22 09:15:47;;;;;;;10.43;5.30;;;;;;;;;;5111973;28;20135;-70
2023/09/22 09:18:19;;;;;;;6.45;5.28;;;15.70;99.90;;;;;;5111755;28;20043;-69
2023/09/22 09:21:05;;;;;;;13.93;5.15;;;15.80;99.90;;;;;;5112127;28;20138;-70
2023/09/22 09:23:31;;;;;;;7.43;4.78;;;;;;;;;;5111681;28;20051;-70
2023/09/22 09:25:57;;;;;;;7.22;5.20;;;15.90;99.90;;;;;;5111671;28;20499;-70
2023/09/22 09:28:24;;;;;;;7.10;5.50;;;;;;;;;;5111485;28;20122;-70
2023/09/22 09:30:54;;;;;;;6.45;5.35;;;16.00;99.90;;;;;;5111849;28;20036;-75
2023/09/22 09:33:26;;;;;;;8.20;4.20;;;16.20;99.90;;;;;;5112026;28;20040;-70
2023/09/22 09:35:52;;;;;;;7.53;3.65;;;;;;;;;;5111790;28;20044;-74
2023/09/22 09:38:20;;;;;;;6.45;3.60;;;16.00;99.90;;;;;;5095580;28;20387;-75
2023/09/22 09:40:52;;;;;;;5.63;3.20;;;;;;;;;;5113571;28;20078;-76
2023/09/22 09:43:18;;;;;;;5.57;3.55;;;;;;;;;;5118485;28;20047;-76
2023/09/22 09:45:57;;;;;;;7.32;4.13;;;15.50;99.90;;;;;;5117702;28;20097;-76
2023/09/22 09:48:24;;;;;;;5.82;4.05;;;;;;;;;;5100293;28;20131;-76
2023/09/22 09:50:54;;;;;;;5.97;3.80;;;;;;;;;;5115243;28;20043;-76
2023/09/22 09:53:31;;;;;;;3.85;2.78;;;16.20;99.90;;;;;;5133321;28;20051;-75
2023/09/22 09:56:01;;;;;;;7.10;3.08;;;15.10;99.90;;;;;;5132416;28;20035;-76
2023/09/22 09:58:29;;;;;;;5.70;3.05;;;16.40;99.90;;;;;;5115049;28;20095;-75
2023/09/22 10:00:56;;;;;;;6.93;2.50;;;16.50;99.90;;;;;;5106728;28;20082;-75
2023/09/22 10:03:22;;;;;;;4.95;2.42;;;;;;;;;;5114937;28;20405;-76
2023/09/22 10:05:51;;;;;;;6.18;2.50;;;;;;;;;;5115188;28;20130;-76
2023/09/22 10:08:20;;;;;;;3.58;2.40;;;15.80;99.90;;;;;;5115107;28;20047;-75
2023/09/22 10:10:53;;;;;;;5.47;2.80;;;16.70;99.90;;;;;;5115034;28;20043;-76
2023/09/22 10:13:19;;;;;;;5.70;2.47;;;;;;;;;;5114842;28;20183;-76
2023/09/22 10:15:55;;;;;;;4.20;2.47;;;17.10;99.90;;;;;;5081357;28;20047;-75
2023/09/22 10:18:23;;;;;;;3.38;2.70;;;17.00;99.90;;;;;;5114790;28;20036;-76
2023/09/22 10:20:49;;;;;;;5.82;2.60;;;;;;;;;;5114767;28;20059;-76
2023/09/22 10:23:27;;;;;;;3.72;2.47;;;16.40;99.90;;;;;;5114741;28;20039;-76
2023/09/22 10:26:05;;;;;;;4.85;2.88;;;15.60;99.90;;;;;;5116046;28;20044;-76
2023/09/22 10:28:31;;;;;;;5.68;3.00;;;;;;;;;;5114497;28;20036;-75
2023/09/22 10:30:57;;;;;;;7.13;2.80;;;;;;;;;;5114698;28;20036;-75
2023/09/22 10:33:26;;;;;;;4.20;2.80;;;;;;;;;;5114512;28;20510;-76
2023/09/22 10:35:53;;;;;;;4.43;2.50;;;;;;;;;;5114464;28;20088;-75
2023/09/22 10:38:22;;;;;;;4.75;2.72;;;;;;;;;;5115762;28;20044;-75
2023/09/22 10:41:06;;;;;;;3.85;2.63;;;16.20;99.90;;;;;;5114507;28;20509;-76
2023/09/22 10:43:33;;;;;;;4.40;2.70;;;;;;;;;;5097246;28;20510;-75
2023/09/22 10:46:02;;;;;;;6.35;2.97;;;16.00;99.90;;;;;;5114826;28;20096;-75
2023/09/22 10:48:34;;;;;;;4.53;2.55;;;16.40;99.90;;;;;;5114346;28;20055;-76
2023/09/22 10:51:05;;;;;;;3.33;2.40;;;;;;;;;;5114219;28;20035;-75
2023/09/22 10:53:34;;;;;;;3.43;2.43;;;;;;;;;;5113745;28;20387;-75
2023/09/22 10:56:05;;;;;;;3.78;2.63;;;;;;;;;;5097242;28;20035;-76
2023/09/22 10:58:31;;;;;;;4.57;2.70;;;;;;;;;;5114292;28;20039;-76
2023/09/22 11:01:08;;;;;;;4.32;2.65;;;17.30;99.90;;;;;;5097663;28;20039;-76
2023/09/22 11:03:37;;;;;;;5.07;3.00;;;;;;;;;;5081163;28;20051;-76
2023/09/22 11:06:06;;;;;;;2.92;2.60;;;;;;;;;;5114447;28;20439;-71
2023/09/22 11:08:32;;;;;;;3.65;2.40;;;;;;;;;;5114922;28;20048;-76
2023/09/22 11:10:59;;;;;;;2.67;2.35;;;;;;;;;;5113789;28;20035;-76
2023/09/22 11:13:25;;;;;;;4.20;2.08;;;;;;;;;;5113907;28;20251;-71
2023/09/22 11:15:59;;;;;;;3.72;2.40;;;17.00;99.90;;;;;;5114119;28;20399;-71
2023/09/22 11:18:33;;;;;;;3.97;2.10;;;17.00;99.90;;;;;;5096870;28;20047;-71
2023/09/22 11:21:02;;;;;;;2.20;2.00;;;16.80;99.90;;;;;;5096650;28;20051;-71
2023/09/22 11:23:28;;;;;;;2.67;2.00;;;16.80;99.90;;;;;;5096803;28;20486;-71
2023/09/22 11:26:00;;;;;;;3.92;2.10;;;16.10;99.90;;;;;;5096447;28;20451;-71
2023/09/22 11:28:26;;;;;;;2.50;2.30;;;;;;;;;;5113442;28;20050;-77
2023/09/22 11:30:53;;;;;;;5.60;2.58;;;;;;;;;;5096796;28;20049;-76
2023/09/22 11:33:20;;;;;;;3.78;2.40;;;;;;;;;;5113396;28;20108;-71
2023/09/22 11:35:46;;;;;;;2.88;2.20;;;;;;;;;;5113241;28;20538;-71
2023/09/22 11:38:31;;;;;;;3.15;2.50;;;17.40;99.90;;;;;;5113195;28;20048;-71
2023/09/22 11:41:02;;;;;;;3.50;2.10;;;17.70;99.90;;;;;;5096586;28;20093;-75
2023/09/22 11:43:29;;;;;;;3.13;2.08;;;;;;;;;;5113362;28;20071;-76
2023/09/22 11:46:05;;;;;;;5.13;2.10;;;;;;;;;;5096419;28;20060;-76
2023/09/22 11:48:31;;;;;;;6.70;1.80;;;;;;;;;;5113109;28;20122;-76
2023/09/22 11:50:57;;;;;;;2.97;2.20;;;;;;;;;;5096285;28;20536;-76
2023/09/22 11:53:23;;;;;;;4.57;2.10;;;;;;;;;;5113187;28;20036;-76
2023/09/22 11:55:50;;;;;;;2.22;1.80;;;;;;;;;;5112994;28;20139;-71
2023/09/22 11:58:17;;;;;;;5.30;2.78;;;;;;;;;;5112850;28;20505;-71
2023/09/22 12:00:43;;;;;;;2.55;2.30;;;;;;;;;;5096383;28;20066;-71
2023/09/22 12:03:10;;;;;;;2.63;2.10;;;16.80;99.90;;;;;;5095703;28;20059;-75
2023/09/22 12:05:39;;;;;;;3.28;2.20;;;18.10;99.90;;;;;;5112692;28;20051;-75
2023/09/22 12:08:06;;;;;;;4.90;2.55;;;18.00;99.90;;;;;;5112896;28;20104;-75
2023/09/22 12:10:32;;;;;;;4.78;2.30;;;;;;;;;;5112671;28;20476;-75
2023/09/22 12:12:58;;;;;;;2.58;1.40;;;17.90;99.90;;;;;;5113128;28;20251;-75
2023/09/22 12:15:24;;;;;;;1.75;1.65;;;;;;;;;;5113039;28;20130;-70
2023/09/22 12:17:50;;;;;;;3.47;1.52;;;;;;;;;;5096102;28;20031;-70
2023/09/22 12:20:16;;;;;;;2.00;1.50;;;18.50;99.90;;;;;;5095900;28;20406;-70
2023/09/22 12:22:42;;;;;;;1.67;1.30;;;;;;;;;;5112333;28;20046;-75
2023/09/22 12:25:09;;;;;;;3.97;1.65;;;;;;;;;;5095838;28;20053;-75
2023/09/22 12:27:35;;;;;;;2.60;1.90;;;18.20;99.90;;;;;;5112460;28;20448;-75
2023/09/22 12:30:02;;;;;;;4.70;1.85;;;;;;;;;;5112225;28;20126;-74
2023/09/22 12:32:28;;;;;;;3.95;1.77;;;;;;;;;;5112152;28;20078;-75
2023/09/22 12:34:54;;;;;;;5.10;2.10;;;;;;;;;;5111863;28;20039;-75
2023/09/22 12:37:20;;;;;;;3.58;2.00;;;;;;;;;;5111976;28;20058;-70
2023/09/22 12:39:47;;;;;;;5.38;1.80;;;;;;;;;;5111959;28;20031;-70
2023/09/22 12:42:14;;;;;;;3.95;1.80;;;;;;;;;;5095223;28;20035;-70
2023/09/22 12:44:39;;;;;;;4.00;1.80;;;17.00;99.90;;;;;;5094574;28;20043;-70
2023/09/22 12:47:05;;;;;;;3.30;1.58;;;;;;;;;;5111549;28;20119;-70
2023/09/22 12:49:31;;;;;;;2.90;1.30;;;;;;;;;;5111794;28;20119;-70
2023/09/22 12:51:57;;;;;;;1.30;1.10;;;;;;;;;;5112011;28;20076;-70
2023/09/22 12:54:23;;;;;;;0.95;0.80;;;;;;;;;;5095195;28;20075;-70
2023/09/22 12:56:50;;;;;;;2.83;1.00;;;;;;;;;;5112284;28;20116;-75
2023/09/22 12:59:15;;;;;;;3.80;1.08;;;18.10;99.90;;;;;;5110742;28;20027;-75
2023/09/22 13:01:41;;;;;;;1.48;0.98;;;18.50;99.90;;;;;;5115396;28;20059;-75
2023/09/22 13:04:07;;;;;;;1.92;0.98;;;;;;;;;;5095726;28;20047;-75
2023/09/22 13:06:34;;;;;;;1.17;1.00;;;;;;;;;;5112674;28;20051;-75
2023/09/22 13:09:00;;;;;;;1.15;1.00;;;17.60;99.90;;;;;;5096302;28;20043;-70
2023/09/22 13:11:27;;;;;;;1.05;0.90;;;;;;;;;;5131151;28;20047;-70
2023/09/22 13:13:53;;;;;;;2.63;1.30;;;;;;;;;;5131831;28;20089;-70
2023/09/22 13:16:19;;;;;;;2.50;1.27;;;;;;;;;;5132194;28;20024;-70
2023/09/22 13:18:47;;;;;;;4.28;1.67;;;;;;;;;;5115990;28;20055;-72
2023/09/22 13:21:14;;;;;;;2.72;1.20;;;19.00;99.90;;;;;;5131088;28;20052;-71
2023/09/22 13:23:41;;;;;;;3.22;1.20;;;;;;;;;;5120890;28;20535;-71
2023/09/22 13:26:07;;;;;;;6.30;1.10;;;;;;;;;;5095162;28;20044;-71
2023/09/22 13:28:33;;;;;;;2.47;1.25;;;17.90;99.90;;;;;;5111205;28;20058;-71
2023/09/22 13:30:59;;;;;;;1.45;0.80;;;;;;;;;;5111476;28;20032;-71
2023/09/22 13:33:28;;;;;;;2.15;0.90;;;;;;;;;;5111261;28;20067;-71
2023/09/22 13:35:55;;;;;;;0.73;0.70;;;;;;;;;;5111509;28;20487;-70
2023/09/22 13:38:21;;;;;;;2.00;0.80;;;;;;;;;;5094321;28;20032;-77
2023/09/22 13:40:50;;;;;;;1.50;0.60;;;16.70;99.90;;;;;;5111439;28;20395;-70
2023/09/22 13:43:16;;;;;;;2.85;0.80;;;;;;;;;;5111436;28;20484;-70
2023/09/22 13:45:42;;;;;;;1.77;0.90;;;;;;;;;;5094735;28;20042;-70
2023/09/22 13:48:09;;;;;;;1.38;0.80;;;17.60;99.90;;;;;;5111604;28;20545;-70
2023/09/22 13:50:35;;;;;;;2.80;1.00;;;18.60;99.90;;;;;;5111406;28;20095;-70
2023/09/22 13:53:02;;;;;;;1.73;0.60;;;;;;;;;;5111342;28;20040;-70
2023/09/22 13:55:28;;;;;;;1.88;0.63;;;;;;;;;;5094294;28;20042;-70
2023/09/22 13:57:55;;;;;;;2.75;0.75;;;;;;;;;;5111080;28;20042;-74
2023/09/22 14:00:21;;;;;;;1.63;0.77;;;;;;;;;;5111151;28;20058;-75
2023/09/22 14:02:47;;;;;;;1.60;0.80;;;;;;;;;;5110850;28;20499;-75